Flight Track Log - Related Links

Times and Time Zones

All times are in EDT time to prevent confusion due to time zone crossing. See the N550S flight status page for this flight to view local times or setup timezone preferences in your user account.

Time Position Orientation Groundspeed Altitude Reporting Facility
EDT Latitude Longitude Course Direction KTS MPH feet Rate Location/Type
Sat 10:09:00 AM 41.5336 -81.6678 336° Northwest 147 169 1,500  Level Cleveland Center
Sat 10:10:24 AM 41.5814 -81.6964 277° West 137 158 3,000 1,078 Climbing Cleveland Center
Sat 10:12:26 AM 41.5908 -81.8019 254° West 146 168 5,200 989 Climbing Cleveland Center
Sat 10:13:26 AM 41.5775 -81.8628 248° West 170 196 6,000 397 Climbing Cleveland Center
Sat 10:14:27 AM 41.5581 -81.9261 245° Southwest 191 220 6,000  Level Cleveland Center
Sat 10:15:27 AM 41.5344 -81.9950 243° Southwest 198 228 6,000 496 Level Cleveland Center
Sat 10:16:28 AM 41.5128 -82.0528 248° West 172 198 7,000 934 Climbing Cleveland Center
Sat 10:17:29 AM 41.4953 -82.1106 245° Southwest 165 190 7,900 496 Climbing Cleveland Center
Sat 10:18:29 AM 41.4736 -82.1739 244° Southwest 177 204 8,000 58 Climbing Cleveland Center
Sat 10:19:12 AM 41.4583 -82.2150 247° West 182 209 8,000  Level Cleveland Center
Sat 10:20:13 AM 41.4389 -82.2756 246° West 180 207 8,000  Level Cleveland Center
Sat 10:44:35 AM 40.9447 -83.7383 243° Southwest 165 190 8,000  Level Indianapolis Center
Sat 10:45:35 AM 40.9219 -83.7986 246° West 177 204 8,000  Level Indianapolis Center
Sat 10:46:35 AM 40.9031 -83.8536 246° West 177 204 8,000  Level Indianapolis Center
Sat 10:47:35 AM 40.8819 -83.9167 245° Southwest 177 204 8,000  Level Indianapolis Center
Sat 10:48:35 AM 40.8631 -83.9714 244° Southwest 177 204 8,000  Level Indianapolis Center
Sat 10:49:35 AM 40.8419 -84.0289 245° Southwest 177 204 8,000  Level Indianapolis Center
Sat 10:50:35 AM 40.8208 -84.0892 237° Southwest 182 209 8,000  Level Indianapolis Center
Sat 10:58:15 AM 40.6314 -84.4738 246° West  Level FlightAware Approximate
Sat 10:59:15 AM 40.6130 -84.5287 246° West  Level FlightAware Approximate
Sat 11:00:15 AM 40.5945 -84.5836 246° West  Level FlightAware Approximate
Sat 11:01:15 AM 40.5760 -84.6384 246° West  Level FlightAware Approximate
Sat 11:02:15 AM 40.5574 -84.6932 246° West  Level FlightAware Approximate
Sat 11:03:15 AM 40.5388 -84.7480 246° West  Level FlightAware Approximate
Sat 11:04:15 AM 40.5202 -84.8027 246° West  Level FlightAware Approximate
Sat 11:05:15 AM 40.5016 -84.8575 246° West  Level FlightAware Approximate
Sat 11:06:15 AM 40.4830 -84.9121 246° West  Level FlightAware Approximate

Login

Don't have an account? Register now (free) for customized features, flight alerts, and more!